Time;durP1;ratioP1;P1;durP2;ratioP2;P2;SDS_P1;SDS_P2;PMS_P1;PMS_P2;Temp;Humidity;BMP_temperature;BMP_pressure;BME280_temperature;BME280_humidity;BME280_pressure;Samples;Min_cycle;Max_cycle;Signal;HPM_P1;HPM_P2
2023/06/16 00:02:17;;;;;;;4.88;1.60;;;16.90;69.40;;;;;;5032976;28;20171;-73
2023/06/16 00:04:43;;;;;;;4.22;1.40;;;16.80;69.80;;;;;;5033296;28;20036;-73
2023/06/16 00:07:09;;;;;;;5.53;2.05;;;16.80;70.10;;;;;;5016294;28;20040;-73
2023/06/16 00:09:35;;;;;;;3.10;1.48;;;16.80;70.30;;;;;;5032903;28;20044;-73
2023/06/16 00:12:01;;;;;;;4.60;1.27;;;16.70;70.50;;;;;;5032877;28;20106;-73
2023/06/16 00:14:26;;;;;;;3.78;1.30;;;16.70;70.80;;;;;;5050676;28;20483;-73
2023/06/16 00:16:52;;;;;;;2.78;1.40;;;16.70;71.10;;;;;;5032381;28;20071;-73
2023/06/16 00:19:18;;;;;;;2.72;1.35;;;16.60;71.30;;;;;;5032734;28;20045;-73
2023/06/16 00:21:45;;;;;;;2.63;1.33;;;16.60;71.30;;;;;;5016791;28;20052;-73
2023/06/16 00:24:11;;;;;;;1.95;1.15;;;16.60;71.50;;;;;;5032656;28;20439;-73
2023/06/16 00:26:37;;;;;;;3.92;1.67;;;16.50;72.00;;;;;;5032359;28;20079;-73
2023/06/16 00:29:04;;;;;;;3.55;1.83;;;16.40;72.40;;;;;;5032403;28;20033;-73
2023/06/16 00:31:31;;;;;;;3.72;1.77;;;16.40;72.60;;;;;;5016086;28;20052;-73
2023/06/16 00:34:00;;;;;;;3.60;1.40;;;16.40;72.90;;;;;;5032674;28;20098;-73
2023/06/16 00:36:27;;;;;;;2.97;1.13;;;16.30;73.10;;;;;;5015983;28;20037;-73
2023/06/16 00:38:53;;;;;;;3.10;1.48;;;16.40;73.40;;;;;;5032661;28;20044;-73
2023/06/16 00:41:18;;;;;;;3.85;1.40;;;16.30;73.60;;;;;;5033113;28;20473;-73
2023/06/16 00:43:44;;;;;;;4.35;1.40;;;16.30;74.00;;;;;;5020513;28;20055;-73
2023/06/16 00:46:12;;;;;;;4.28;1.80;;;16.20;74.40;;;;;;5036276;28;20494;-73
2023/06/16 00:48:38;;;;;;;3.22;1.50;;;16.20;75.00;;;;;;5036474;28;20052;-73
2023/06/16 00:51:04;;;;;;;2.55;1.25;;;16.20;75.60;;;;;;5036519;28;20036;-73
2023/06/16 00:53:31;;;;;;;4.05;1.63;;;16.20;76.10;;;;;;5036597;28;20144;-73
2023/06/16 00:55:58;;;;;;;3.20;1.60;;;16.20;76.30;;;;;;5020137;28;20036;-73
2023/06/16 00:58:24;;;;;;;3.78;1.60;;;16.20;76.60;;;;;;5019603;28;20045;-73
2023/06/16 01:00:51;;;;;;;4.70;1.90;;;16.20;76.90;;;;;;5036559;28;20051;-73
2023/06/16 01:03:17;;;;;;;3.08;1.50;;;16.20;77.20;;;;;;5054142;28;20044;-73
2023/06/16 01:05:43;;;;;;;3.50;1.80;;;16.20;77.40;;;;;;5036521;28;20450;-73
2023/06/16 01:08:25;;;;;;;4.72;1.60;;;16.10;77.60;;;;;;5035856;28;20357;-73
2023/06/16 01:11:03;;;;;;;3.28;1.58;;;16.10;78.50;;;;;;5019552;28;20037;-73
2023/06/16 01:13:56;;;;;;;4.70;1.75;;;16.10;78.20;;;;;;5019575;28;20551;-73
2023/06/16 01:16:29;;;;;;;2.50;1.38;;;16.00;79.00;;;;;;5035748;28;20102;-73
2023/06/16 01:18:55;;;;;;;4.18;2.08;;;16.00;78.60;;;;;;5035939;28;20052;-73
2023/06/16 01:21:32;;;;;;;3.97;1.65;;;15.90;78.70;;;;;;5035528;28;20041;-73
2023/06/16 01:24:13;;;;;;;3.03;1.52;;;15.90;79.20;;;;;;5035472;28;20041;-73
2023/06/16 01:26:46;;;;;;;3.25;1.55;;;15.80;80.60;;;;;;5035672;28;20087;-73
2023/06/16 01:29:13;;;;;;;4.30;1.70;;;15.80;79.90;;;;;;5036115;28;20036;-73
2023/06/16 01:31:42;;;;;;;4.20;1.60;;;15.80;80.00;;;;;;5035974;28;20403;-73
2023/06/16 01:34:10;;;;;;;3.38;1.65;;;15.80;80.40;;;;;;5035694;28;20044;-73
2023/06/16 01:36:39;;;;;;;3.22;1.75;;;15.70;80.70;;;;;;5035903;28;20049;-73
2023/06/16 01:39:06;;;;;;;3.80;1.80;;;15.70;81.10;;;;;;5035591;28;20051;-73
2023/06/16 01:41:34;;;;;;;3.95;1.42;;;15.70;81.50;;;;;;5035587;28;20033;-73
2023/06/16 01:44:01;;;;;;;4.47;1.60;;;15.60;81.60;;;;;;5035381;28;20070;-73
2023/06/16 01:46:29;;;;;;;5.57;1.90;;;15.60;81.90;;;;;;5018671;28;20102;-73
2023/06/16 01:48:55;;;;;;;5.45;2.05;;;15.60;82.10;;;;;;5053302;28;20056;-73
2023/06/16 01:51:22;;;;;;;3.60;1.98;;;15.60;82.30;;;;;;5035149;28;20076;-73
2023/06/16 01:53:49;;;;;;;3.65;1.75;;;15.50;83.10;;;;;;5034238;28;20087;-73
2023/06/16 01:56:15;;;;;;;3.03;1.70;;;15.50;82.90;;;;;;5035639;28;20398;-73
2023/06/16 01:58:42;;;;;;;4.60;1.70;;;15.50;84.00;;;;;;5035266;28;20430;-73
2023/06/16 02:01:13;;;;;;;4.03;1.90;;;15.40;83.50;;;;;;5035252;28;20529;-73
2023/06/16 02:04:01;;;;;;;5.05;2.10;;;15.40;83.90;;;;;;5035158;28;20288;-73
2023/06/16 02:06:33;;;;;;;3.15;1.80;;;15.40;84.70;;;;;;5018681;28;20044;-73
2023/06/16 02:09:02;;;;;;;6.18;2.17;;;15.40;84.70;;;;;;5034922;28;20036;-73
2023/06/16 02:11:29;;;;;;;3.38;1.80;;;15.30;85.70;;;;;;5035094;28;20063;-73
2023/06/16 02:13:55;;;;;;;5.13;1.98;;;15.30;85.30;;;;;;5034934;28;20620;-73
2023/06/16 02:16:20;;;;;;;4.03;1.83;;;15.40;85.60;;;;;;5034724;28;20048;-73
2023/06/16 02:18:49;;;;;;;5.03;1.77;;;15.30;85.50;;;;;;5052660;28;20116;-73
2023/06/16 02:21:15;;;;;;;4.90;2.42;;;15.30;85.80;;;;;;5034939;28;20033;-73
2023/06/16 02:23:41;;;;;;;4.95;2.38;;;15.20;86.00;;;;;;5018595;28;20552;-73
2023/06/16 02:26:06;;;;;;;6.57;2.00;;;15.30;86.30;;;;;;5052642;28;20056;-73
2023/06/16 02:28:32;;;;;;;3.60;1.75;;;15.20;86.50;;;;;;5034705;28;20119;-73
2023/06/16 02:30:57;;;;;;;5.60;2.38;;;15.20;86.80;;;;;;5034958;28;20117;-73
2023/06/16 02:33:23;;;;;;;4.38;1.70;;;15.20;87.00;;;;;;5034822;28;20033;-73
2023/06/16 02:35:48;;;;;;;4.35;2.10;;;15.10;87.30;;;;;;5034513;28;20456;-73
2023/06/16 02:38:14;;;;;;;5.25;2.17;;;15.10;87.50;;;;;;5052479;28;20044;-73
2023/06/16 02:40:40;;;;;;;3.47;2.00;;;15.00;87.70;;;;;;5034575;28;20536;-73
2023/06/16 02:43:05;;;;;;;4.75;1.92;;;15.00;87.90;;;;;;5052195;28;20068;-73
2023/06/16 02:45:31;;;;;;;4.57;2.28;;;14.90;88.20;;;;;;5034359;28;20481;-72
2023/06/16 02:47:56;;;;;;;3.67;2.38;;;14.90;88.70;;;;;;5034461;28;20041;-73
2023/06/16 02:50:22;;;;;;;3.50;2.10;;;14.90;89.30;;;;;;5034195;28;20044;-73
2023/06/16 02:52:49;;;;;;;4.50;2.17;;;14.90;89.30;;;;;;5034420;28;20508;-73
2023/06/16 02:55:15;;;;;;;4.40;2.70;;;14.90;89.80;;;;;;5034310;28;20043;-73
2023/06/16 02:57:41;;;;;;;3.28;1.80;;;14.90;90.10;;;;;;5034205;28;20120;-73
2023/06/16 03:00:10;;;;;;;3.55;1.90;;;14.90;90.20;;;;;;5033950;28;20033;-73
2023/06/16 03:02:36;;;;;;;4.55;1.95;;;14.90;90.30;;;;;;5034025;28;20044;-73
2023/06/16 03:05:04;;;;;;;3.72;1.85;;;14.90;90.40;;;;;;5017453;28;20036;-73
2023/06/16 03:07:34;;;;;;;3.90;2.08;;;14.90;90.50;;;;;;5033806;28;20076;-73
2023/06/16 03:10:01;;;;;;;5.95;2.20;;;14.90;90.70;;;;;;5034027;28;20064;-73
2023/06/16 03:12:26;;;;;;;4.97;2.10;;;14.90;90.60;;;;;;5033917;28;20124;-73
2023/06/16 03:14:52;;;;;;;4.13;2.03;;;14.90;90.60;;;;;;5034344;28;20135;-73
2023/06/16 03:17:20;;;;;;;4.35;2.30;;;14.90;90.60;;;;;;5051577;28;20049;-73
2023/06/16 03:19:49;;;;;;;4.25;2.10;;;14.90;90.70;;;;;;5033733;28;20051;-73
2023/06/16 03:22:15;;;;;;;5.70;2.95;;;14.90;90.80;;;;;;5033509;28;20041;-73
2023/06/16 03:24:43;;;;;;;5.95;2.75;;;14.90;90.90;;;;;;5017199;28;20064;-73
2023/06/16 03:27:09;;;;;;;3.65;2.38;;;14.90;91.10;;;;;;5033343;28;20131;-73
2023/06/16 03:29:36;;;;;;;5.82;2.90;;;14.90;91.20;;;;;;5016936;28;20044;-73
2023/06/16 03:32:05;;;;;;;5.40;2.80;;;14.90;91.30;;;;;;5033757;28;20091;-73
2023/06/16 03:34:31;;;;;;;6.43;2.92;;;14.80;91.40;;;;;;5033713;28;20458;-73
2023/06/16 03:36:57;;;;;;;4.45;2.65;;;14.80;91.60;;;;;;5033349;28;20403;-73
2023/06/16 03:39:23;;;;;;;4.38;2.25;;;14.80;91.70;;;;;;5016531;28;20594;-73
2023/06/16 03:41:49;;;;;;;5.55;2.55;;;14.80;91.80;;;;;;5016789;28;20045;-73
2023/06/16 03:44:15;;;;;;;5.35;2.60;;;14.80;91.80;;;;;;5051334;28;20049;-73
2023/06/16 03:46:41;;;;;;;6.25;2.17;;;14.70;91.90;;;;;;5017245;28;20037;-73
2023/06/16 03:49:09;;;;;;;4.60;2.63;;;14.70;92.00;;;;;;5016666;28;20375;-73
2023/06/16 03:51:35;;;;;;;4.88;2.63;;;14.70;92.10;;;;;;5016463;28;20461;-73
2023/06/16 03:54:01;;;;;;;7.22;3.22;;;14.70;92.30;;;;;;5033094;28;20095;-73
2023/06/16 03:56:26;;;;;;;7.80;3.17;;;14.80;92.40;;;;;;5051017;28;20111;-73
2023/06/16 03:58:52;;;;;;;4.28;2.35;;;14.80;92.50;;;;;;5050841;28;20040;-73
2023/06/16 04:01:22;;;;;;;5.70;2.97;;;14.80;92.70;;;;;;5033145;28;20040;-73
2023/06/16 04:03:49;;;;;;;6.05;3.00;;;14.80;92.80;;;;;;5033038;28;20161;-73
2023/06/16 04:06:15;;;;;;;5.38;2.58;;;14.90;92.90;;;;;;5032964;28;20425;-73
2023/06/16 04:08:41;;;;;;;6.70;3.25;;;14.90;93.10;;;;;;5016474;28;20091;-73
2023/06/16 04:11:07;;;;;;;5.55;3.55;;;14.90;93.30;;;;;;5032817;28;20072;-73
2023/06/16 04:13:32;;;;;;;6.47;3.50;;;14.90;93.40;;;;;;5032632;28;20113;-73
2023/06/16 04:15:58;;;;;;;6.03;3.15;;;15.00;93.60;;;;;;5032021;28;20037;-73
2023/06/16 04:18:24;;;;;;;7.10;3.70;;;15.00;93.80;;;;;;5016103;28;20085;-73
2023/06/16 04:20:50;;;;;;;9.52;4.50;;;15.10;94.10;;;;;;5032600;28;20066;-73
2023/06/16 04:23:16;;;;;;;7.07;3.75;;;15.10;94.40;;;;;;5032657;28;20482;-73
2023/06/16 04:25:42;;;;;;;7.88;4.07;;;15.10;94.60;;;;;;5032477;28;20053;-73
2023/06/16 04:28:13;;;;;;;8.00;4.53;;;15.20;94.80;;;;;;5032581;28;20127;-73
2023/06/16 04:30:40;;;;;;;7.57;3.67;;;15.20;95.00;;;;;;5015974;28;20501;-73
2023/06/16 04:33:06;;;;;;;9.38;4.57;;;15.20;95.10;;;;;;5032235;28;20086;-73
2023/06/16 04:35:34;;;;;;;6.78;4.03;;;15.20;95.30;;;;;;5016181;28;20033;-73
2023/06/16 04:38:00;;;;;;;11.02;5.03;;;15.20;95.50;;;;;;5032669;28;20505;-73
2023/06/16 04:40:29;;;;;;;7.38;4.20;;;15.30;95.60;;;;;;5032403;28;20037;-73
2023/06/16 04:42:55;;;;;;;7.03;3.55;;;15.30;95.80;;;;;;5032586;28;20076;-73
2023/06/16 04:45:22;;;;;;;6.97;4.13;;;15.30;95.80;;;;;;5032162;28;20048;-73
2023/06/16 04:47:50;;;;;;;7.70;4.03;;;15.30;95.90;;;;;;5050043;28;20048;-73
2023/06/16 04:50:16;;;;;;;7.50;5.07;;;15.40;96.00;;;;;;5032172;28;20052;-73
2023/06/16 04:52:42;;;;;;;6.80;3.92;;;15.40;96.00;;;;;;5032490;28;20041;-73
2023/06/16 04:55:08;;;;;;;8.93;4.05;;;15.40;96.10;;;;;;5032095;28;20041;-73
2023/06/16 04:57:34;;;;;;;8.77;4.07;;;15.50;96.20;;;;;;5032685;28;20064;-73
2023/06/16 05:00:03;;;;;;;8.40;4.20;;;15.50;96.30;;;;;;5049903;28;20087;-73
2023/06/16 05:02:28;;;;;;;9.93;4.60;;;15.50;96.50;;;;;;5050046;28;20040;-73
2023/06/16 05:04:56;;;;;;;7.43;4.72;;;15.50;96.60;;;;;;5032150;28;20033;-73
2023/06/16 05:07:22;;;;;;;8.63;4.93;;;15.60;96.70;;;;;;5032027;28;20414;-73
2023/06/16 05:09:47;;;;;;;9.27;5.07;;;15.60;96.80;;;;;;5032016;28;20037;-73
2023/06/16 05:12:13;;;;;;;8.20;4.80;;;15.50;96.90;;;;;;5032321;28;20106;-73
2023/06/16 05:14:38;;;;;;;9.00;5.03;;;15.70;97.10;;;;;;5032583;28;20131;-73
2023/06/16 05:17:04;;;;;;;11.75;5.38;;;15.70;97.10;;;;;;5015894;28;20067;-73
2023/06/16 05:19:32;;;;;;;9.88;5.18;;;15.70;97.20;;;;;;5032024;28;20049;-73
2023/06/16 05:21:58;;;;;;;10.10;5.38;;;15.70;97.30;;;;;;5032097;28;20037;-73
2023/06/16 05:24:24;;;;;;;9.30;5.03;;;15.70;97.40;;;;;;5031721;28;20617;-73
2023/06/16 05:26:50;;;;;;;9.90;5.25;;;15.70;97.50;;;;;;5015377;28;20057;-73
2023/06/16 05:29:16;;;;;;;10.10;5.25;;;15.80;97.60;;;;;;5035431;28;20037;-73
2023/06/16 05:31:41;;;;;;;10.27;4.93;;;15.80;97.70;;;;;;5035760;28;20037;-73
2023/06/16 05:34:07;;;;;;;10.60;5.93;;;15.80;97.70;;;;;;5019141;28;20048;-73
2023/06/16 05:36:35;;;;;;;12.88;5.70;;;15.80;97.80;;;;;;5035688;28;20048;-73
2023/06/16 05:39:05;;;;;;;13.65;5.65;;;15.90;97.90;;;;;;5035610;28;20045;-73
2023/06/16 05:41:31;;;;;;;9.48;5.40;;;15.80;97.90;;;;;;5035899;28;20068;-73
2023/06/16 05:43:57;;;;;;;10.35;5.28;;;15.90;98.00;;;;;;5035461;28;20072;-73
2023/06/16 05:46:24;;;;;;;10.07;5.60;;;16.00;98.10;;;;;;5018888;28;20045;-73
2023/06/16 05:48:49;;;;;;;10.57;5.07;;;16.00;98.10;;;;;;5035494;28;20044;-74
2023/06/16 05:51:15;;;;;;;13.38;6.13;;;16.00;98.20;;;;;;5035659;28;20029;-74
2023/06/16 05:53:41;;;;;;;11.32;5.57;;;16.00;98.20;;;;;;5018949;28;20045;-74
2023/06/16 05:56:07;;;;;;;12.07;6.15;;;16.10;98.30;;;;;;5035496;28;20088;-74
2023/06/16 05:58:36;;;;;;;11.48;5.50;;;16.10;98.30;;;;;;5034957;28;20482;-73
2023/06/16 06:01:07;;;;;;;10.65;5.82;;;16.20;98.50;;;;;;5035214;28;20044;-73
2023/06/16 06:03:33;;;;;;;9.93;5.35;;;16.20;98.70;;;;;;5035472;28;20537;-73
2023/06/16 06:05:59;;;;;;;9.55;5.53;;;16.30;98.50;;;;;;5018669;28;20048;-73
2023/06/16 06:08:27;;;;;;;10.05;5.60;;;16.30;98.60;;;;;;5052955;28;20351;-73
2023/06/16 06:10:55;;;;;;;11.52;5.75;;;16.40;98.60;;;;;;5034899;28;20041;-73
2023/06/16 06:13:21;;;;;;;10.38;5.95;;;16.40;98.70;;;;;;5034743;28;20182;-73
2023/06/16 06:15:47;;;;;;;9.15;5.05;;;16.50;98.60;;;;;;5018586;28;20122;-73
2023/06/16 06:18:13;;;;;;;8.43;5.00;;;16.60;98.70;;;;;;5035015;28;20075;-73
2023/06/16 06:20:39;;;;;;;8.95;4.40;;;16.60;98.60;;;;;;5034836;28;20209;-73
2023/06/16 06:23:05;;;;;;;11.68;4.78;;;16.70;98.40;;;;;;5018350;28;20055;-73
2023/06/16 06:25:31;;;;;;;11.27;5.00;;;16.80;98.40;;;;;;5034375;28;20065;-73
2023/06/16 06:27:57;;;;;;;8.57;4.90;;;16.80;98.30;;;;;;5034631;28;20037;-73
2023/06/16 06:30:24;;;;;;;11.57;5.30;;;16.90;98.30;;;;;;5034838;28;20044;-73
2023/06/16 06:32:50;;;;;;;12.18;5.75;;;17.00;98.40;;;;;;5034749;28;20047;-73
2023/06/16 06:35:16;;;;;;;10.38;4.90;;;17.40;98.30;;;;;;5052462;28;20029;-73
2023/06/16 06:37:42;;;;;;;10.95;5.18;;;18.50;97.20;;;;;;5034772;28;20045;-73
2023/06/16 06:40:08;;;;;;;8.93;4.80;;;19.70;95.50;;;;;;5033654;28;20098;-73
2023/06/16 06:42:33;;;;;;;8.45;4.53;;;20.80;93.70;;;;;;5018011;28;20044;-73
2023/06/16 06:44:59;;;;;;;7.57;4.25;;;21.70;92.10;;;;;;5017971;28;20509;-73
2023/06/16 06:47:25;;;;;;;7.68;4.57;;;22.50;90.60;;;;;;5034444;28;20449;-73
2023/06/16 06:49:50;;;;;;;7.95;4.55;;;23.00;88.60;;;;;;5034705;28;20045;-73
2023/06/16 06:52:16;;;;;;;9.10;4.90;;;23.20;87.20;;;;;;5034053;28;20045;-73
2023/06/16 06:54:41;;;;;;;8.30;4.22;;;22.80;87.60;;;;;;5034370;28;20041;-73
2023/06/16 06:57:07;;;;;;;9.65;4.38;;;22.20;89.00;;;;;;5034145;28;20048;-73
2023/06/16 06:59:33;;;;;;;8.05;4.28;;;21.70;90.30;;;;;;5033979;28;20124;-73
2023/06/16 07:01:59;;;;;;;6.25;3.78;;;21.30;91.00;;;;;;5017493;28;20208;-73
2023/06/16 07:04:25;;;;;;;8.77;4.70;;;21.00;91.50;;;;;;5034075;28;20383;-73
2023/06/16 07:06:51;;;;;;;9.80;4.35;;;20.70;91.80;;;;;;5034069;28;20082;-73
2023/06/16 07:09:17;;;;;;;5.53;3.35;;;20.40;92.10;;;;;;5033618;28;20508;-73
2023/06/16 07:11:43;;;;;;;6.80;4.03;;;20.20;92.60;;;;;;5033888;28;20041;-73
2023/06/16 07:14:08;;;;;;;6.55;4.07;;;20.00;92.70;;;;;;5033594;28;20388;-73
2023/06/16 07:16:34;;;;;;;6.38;3.60;;;19.90;92.80;;;;;;5051828;28;20040;-73
2023/06/16 07:19:01;;;;;;;8.07;4.20;;;19.80;92.90;;;;;;5017318;28;20048;-74
2023/06/16 07:21:27;;;;;;;6.32;3.35;;;19.80;93.10;;;;;;5033584;28;20045;-74
2023/06/16 07:23:53;;;;;;;5.13;2.83;;;19.70;92.90;;;;;;5016830;28;20047;-73
2023/06/16 07:26:19;;;;;;;7.57;4.25;;;19.60;92.50;;;;;;5033398;28;20049;-73
2023/06/16 07:28:44;;;;;;;7.07;4.35;;;19.60;92.60;;;;;;5033736;28;20045;-73
2023/06/16 07:31:10;;;;;;;6.53;3.40;;;19.50;92.70;;;;;;5033481;28;20029;-73
2023/06/16 07:33:36;;;;;;;7.10;3.83;;;19.50;92.80;;;;;;5033832;28;20076;-74
2023/06/16 07:36:02;;;;;;;7.68;3.58;;;19.50;92.80;;;;;;5051285;28;20118;-73
2023/06/16 07:38:28;;;;;;;5.80;3.25;;;19.40;92.60;;;;;;5033204;28;20384;-73
2023/06/16 07:40:54;;;;;;;5.68;3.45;;;19.40;92.50;;;;;;5017121;28;20442;-73
2023/06/16 07:43:21;;;;;;;7.50;3.47;;;19.40;92.40;;;;;;5051068;28;20041;-74
2023/06/16 07:45:47;;;;;;;7.20;3.80;;;19.40;92.40;;;;;;5033283;28;20048;-73
2023/06/16 07:48:14;;;;;;;5.40;3.25;;;19.40;92.30;;;;;;5017082;28;20102;-73
2023/06/16 07:50:40;;;;;;;7.78;3.20;;;19.40;92.20;;;;;;5032750;28;20045;-73
2023/06/16 07:53:06;;;;;;;4.97;2.92;;;19.40;92.30;;;;;;5032867;28;20076;-73
2023/06/16 07:55:32;;;;;;;5.28;3.00;;;19.40;92.20;;;;;;5033197;28;20533;-73
2023/06/16 07:57:57;;;;;;;5.93;3.33;;;19.40;92.10;;;;;;5033207;28;20064;-74
2023/06/16 08:00:23;;;;;;;5.80;3.13;;;19.40;92.10;;;;;;5050697;28;20509;-74
2023/06/16 08:02:50;;;;;;;5.50;3.17;;;19.50;92.10;;;;;;5033132;28;20044;-74
2023/06/16 08:05:20;;;;;;;6.63;3.28;;;19.50;92.40;;;;;;5016681;28;20033;-74
2023/06/16 08:07:46;;;;;;;6.80;3.28;;;19.50;92.10;;;;;;5032751;28;20037;-74
2023/06/16 08:10:12;;;;;;;6.00;3.28;;;19.60;92.10;;;;;;5032885;28;20417;-74
2023/06/16 08:12:37;;;;;;;5.32;3.60;;;19.60;92.00;;;;;;5032720;28;20040;-73
2023/06/16 08:15:03;;;;;;;6.68;3.65;;;19.60;92.10;;;;;;5032930;28;20047;-73
2023/06/16 08:17:30;;;;;;;5.03;3.00;;;19.60;92.00;;;;;;5032875;28;20056;-74
2023/06/16 08:19:55;;;;;;;5.68;3.00;;;19.60;92.20;;;;;;5016480;28;20371;-74
2023/06/16 08:22:21;;;;;;;4.72;2.83;;;19.60;92.10;;;;;;5032491;28;20051;-74
2023/06/16 08:24:47;;;;;;;6.60;3.28;;;19.70;92.00;;;;;;5032668;28;20544;-74
2023/06/16 08:27:12;;;;;;;5.30;2.80;;;19.70;92.00;;;;;;5032795;28;20048;-74
2023/06/16 08:29:39;;;;;;;7.38;3.28;;;19.80;92.00;;;;;;5033002;28;20099;-74
2023/06/16 08:32:06;;;;;;;6.90;3.55;;;19.80;92.10;;;;;;5050378;28;20040;-74
2023/06/16 08:34:31;;;;;;;5.07;3.30;;;19.90;92.00;;;;;;5032317;28;20099;-74
2023/06/16 08:36:58;;;;;;;5.25;2.90;;;19.90;92.00;;;;;;5032673;28;20041;-74
2023/06/16 08:39:24;;;;;;;6.63;3.30;;;20.10;92.00;;;;;;5032470;28;20044;-74
2023/06/16 08:41:50;;;;;;;6.22;3.40;;;20.00;91.90;;;;;;5016135;28;20300;-73
2023/06/16 08:44:18;;;;;;;5.13;2.85;;;20.10;91.60;;;;;;5032481;28;20410;-74
2023/06/16 08:46:45;;;;;;;4.38;2.90;;;20.10;91.50;;;;;;5016093;28;20041;-74
2023/06/16 08:49:14;;;;;;;4.63;3.42;;;20.20;91.50;;;;;;5016118;28;20438;-74
2023/06/16 08:51:47;;;;;;;6.03;3.78;;;20.20;91.50;;;;;;5032203;28;20073;-74
2023/06/16 08:54:13;;;;;;;6.70;3.60;;;20.30;91.40;;;;;;5032700;28;20470;-74
2023/06/16 08:56:39;;;;;;;5.43;3.33;;;20.30;91.40;;;;;;5050187;28;20037;-74
2023/06/16 08:59:06;;;;;;;5.10;2.97;;;20.40;91.40;;;;;;5015977;28;20059;-74
2023/06/16 09:01:33;;;;;;;6.85;3.35;;;20.40;91.30;;;;;;5032453;28;20041;-74
2023/06/16 09:03:59;;;;;;;6.93;3.20;;;20.50;91.30;;;;;;5035538;28;20112;-74
2023/06/16 09:06:25;;;;;;;4.82;2.88;;;20.50;90.90;;;;;;5019758;28;20135;-74
2023/06/16 09:08:52;;;;;;;4.70;2.83;;;20.50;91.00;;;;;;5036263;28;20598;-74
2023/06/16 09:11:25;;;;;;;8.05;3.50;;;20.50;90.60;;;;;;5036114;28;20402;-74
2023/06/16 09:13:55;;;;;;;5.03;3.05;;;20.60;90.70;;;;;;5019695;28;20493;-73
2023/06/16 09:16:22;;;;;;;6.07;3.38;;;20.60;90.60;;;;;;5019540;28;20057;-74
2023/06/16 09:18:49;;;;;;;4.75;3.20;;;20.60;90.60;;;;;;5035968;28;20045;-74
2023/06/16 09:21:22;;;;;;;4.75;2.85;;;20.50;90.50;;;;;;5036110;28;20047;-73
2023/06/16 09:23:57;;;;;;;4.82;3.08;;;20.60;90.40;;;;;;5036052;28;20048;-74
2023/06/16 09:26:30;;;;;;;7.50;3.25;;;20.60;90.30;;;;;;5035694;28;20056;-73
2023/06/16 09:28:57;;;;;;;5.70;3.30;;;20.70;90.20;;;;;;5035899;28;20123;-73
2023/06/16 09:31:29;;;;;;;5.97;2.95;;;20.70;89.70;;;;;;5036243;28;20421;-73
2023/06/16 09:34:05;;;;;;;4.70;2.72;;;20.80;89.10;;;;;;5019234;28;20028;-73
2023/06/16 09:36:31;;;;;;;4.10;2.35;;;20.80;88.00;;;;;;5035682;28;20056;-73
2023/06/16 09:38:57;;;;;;;5.65;2.58;;;20.80;88.00;;;;;;5035901;28;20398;-73
2023/06/16 09:41:23;;;;;;;4.70;2.60;;;20.90;87.10;;;;;;5035483;28;20037;-74
2023/06/16 09:43:49;;;;;;;3.58;2.28;;;20.90;85.70;;;;;;5035715;28;20468;-73
2023/06/16 09:46:15;;;;;;;4.05;2.67;;;21.00;84.30;;;;;;5035803;28;20037;-73
2023/06/16 09:48:48;;;;;;;3.45;2.00;;;21.10;83.30;;;;;;5019168;28;20514;-73
2023/06/16 09:51:22;;;;;;;3.25;2.20;;;21.10;82.20;;;;;;5035532;28;20600;-73
2023/06/16 09:53:49;;;;;;;5.32;2.03;;;21.10;81.20;;;;;;5035295;28;20450;-73
2023/06/16 09:56:16;;;;;;;3.75;2.25;;;21.10;81.20;;;;;;5035365;28;20521;-73
2023/06/16 09:58:43;;;;;;;3.88;2.05;;;21.10;80.60;;;;;;5019091;28;20041;-73
2023/06/16 10:01:10;;;;;;;3.58;2.10;;;21.20;78.70;;;;;;5035339;28;20124;-73
2023/06/16 10:03:41;;;;;;;4.97;2.03;;;21.20;77.60;;;;;;5052926;28;20041;-73
2023/06/16 10:06:16;;;;;;;3.75;1.85;;;21.30;76.10;;;;;;5035189;28;20044;-72
2023/06/16 10:08:42;;;;;;;;;;;21.30;73.30;;;;;;5053419;28;20095;-73
2023/06/16 10:11:11;;;;;;;4.15;2.03;;;21.30;69.30;;;;;;5035367;28;20285;-73
2023/06/16 10:13:38;;;;;;;3.58;1.70;;;21.30;73.60;;;;;;5052339;28;20135;-73
2023/06/16 10:16:08;;;;;;;3.45;1.80;;;21.30;72.20;;;;;;5034804;28;20477;-73
2023/06/16 10:18:35;;;;;;;2.33;1.42;;;21.40;70.90;;;;;;5034740;28;20055;-73
2023/06/16 10:21:01;;;;;;;2.75;1.70;;;21.40;70.00;;;;;;5035244;28;20474;-73
2023/06/16 10:23:27;;;;;;;3.25;1.70;;;21.40;69.40;;;;;;5034501;28;20055;-73
2023/06/16 10:25:53;;;;;;;5.60;1.85;;;21.50;69.60;;;;;;5034606;28;20053;-73
2023/06/16 10:28:20;;;;;;;3.10;1.55;;;21.50;67.90;;;;;;5018109;28;20091;-73
2023/06/16 10:30:48;;;;;;;3.88;1.60;;;21.50;67.10;;;;;;5034894;28;20037;-73
2023/06/16 10:33:25;;;;;;;3.35;1.60;;;21.50;66.90;;;;;;5052735;28;20041;-73
2023/06/16 10:36:01;;;;;;;3.67;1.75;;;21.60;63.30;;;;;;5034463;28;20045;-73
2023/06/16 10:38:36;;;;;;;2.83;1.42;;;21.50;65.00;;;;;;5034520;28;20037;-73
2023/06/16 10:41:03;;;;;;;4.80;1.88;;;21.60;63.20;;;;;;5052433;28;20051;-73
2023/06/16 10:43:29;;;;;;;4.85;1.88;;;21.70;64.40;;;;;;5034616;28;20041;-73
2023/06/16 10:46:14;;;;;;;4.63;1.98;;;21.70;64.20;;;;;;5034254;28;20036;-73
2023/06/16 10:48:56;;;;;;;2.67;1.45;;;21.70;62.20;;;;;;5052314;28;20033;-73
2023/06/16 10:51:50;;;;;;;2.92;1.50;;;21.80;61.40;;;;;;5052311;28;20044;-73
2023/06/16 10:54:48;;;;;;;4.03;2.03;;;21.70;61.40;;;;;;5034204;28;20510;-73
2023/06/16 10:57:15;;;;;;;2.28;1.42;;;21.80;59.70;;;;;;5045093;28;20055;-73
2023/06/16 10:59:55;;;;;;;2.90;1.45;;;21.90;62.40;;;;;;5017837;28;20159;-73
2023/06/16 11:02:33;;;;;;;4.00;2.20;;;21.90;60.30;;;;;;5034047;28;20041;-73
2023/06/16 11:05:07;;;;;;;2.13;1.35;;;21.80;61.00;;;;;;5017232;28;20049;-73
2023/06/16 11:08:12;;;;;;;3.35;1.35;;;21.90;60.40;;;;;;5051932;28;20095;-73
2023/06/16 11:10:55;;;;;;;4.38;1.70;;;21.90;57.10;;;;;;4994781;28;20057;-73
2023/06/16 11:13:26;;;;;;;3.38;1.70;;;21.90;59.50;;;;;;5017655;28;20558;-73
2023/06/16 11:15:55;;;;;;;3.72;2.03;;;22.00;60.40;;;;;;5033691;28;20482;-73
2023/06/16 11:18:29;;;;;;;4.03;1.40;;;22.00;60.30;;;;;;5034129;28;20352;-73
2023/06/16 11:20:59;;;;;;;2.95;1.70;;;22.00;59.40;;;;;;5017217;28;20044;-73
2023/06/16 11:23:26;;;;;;;3.33;1.73;;;22.00;59.90;;;;;;5033983;28;20560;-73
2023/06/16 11:25:52;;;;;;;2.88;1.60;;;22.10;59.40;;;;;;5033099;28;20499;-73
2023/06/16 11:28:21;;;;;;;4.63;1.60;;;22.10;59.10;;;;;;5051490;28;20127;-73
2023/06/16 11:30:48;;;;;;;2.50;1.45;;;22.20;58.10;;;;;;5033438;28;20052;-73
2023/06/16 11:33:19;;;;;;;3.15;1.50;;;22.20;58.60;;;;;;5033527;28;20552;-73
2023/06/16 11:35:45;;;;;;;2.78;1.42;;;22.10;57.90;;;;;;5033499;28;20045;-73
2023/06/16 11:38:11;;;;;;;2.97;1.60;;;22.20;58.20;;;;;;5016987;28;20043;-73
2023/06/16 11:40:36;;;;;;;3.42;1.60;;;22.20;57.90;;;;;;5017139;28;20124;-73
2023/06/16 11:43:04;;;;;;;3.05;1.60;;;22.20;58.20;;;;;;5033378;28;20033;-73
2023/06/16 11:45:36;;;;;;;2.75;1.65;;;22.30;57.90;;;;;;5033182;28;20032;-73
2023/06/16 11:48:03;;;;;;;2.85;1.50;;;22.30;57.90;;;;;;5016762;28;20052;-73
2023/06/16 11:50:29;;;;;;;3.33;1.70;;;22.40;57.50;;;;;;5033180;28;20071;-72
2023/06/16 11:52:55;;;;;;;3.60;1.85;;;22.50;56.70;;;;;;5033274;28;20079;-73
2023/06/16 11:55:22;;;;;;;2.88;1.50;;;22.50;56.40;;;;;;5032934;28;20490;-73
2023/06/16 11:57:47;;;;;;;5.90;1.75;;;22.50;55.50;;;;;;5051063;28;20383;-72
2023/06/16 12:00:14;;;;;;;2.42;1.52;;;22.50;55.30;;;;;;5051198;28;20052;-73
2023/06/16 12:02:42;;;;;;;3.53;1.70;;;22.50;54.90;;;;;;5033297;28;20134;-73
2023/06/16 12:05:16;;;;;;;3.40;1.98;;;22.60;54.90;;;;;;5033224;28;20495;-73
2023/06/16 12:07:41;;;;;;;2.42;1.42;;;22.60;55.30;;;;;;5033033;28;20041;-73
2023/06/16 12:10:08;;;;;;;3.28;1.75;;;22.60;55.40;;;;;;5033171;28;20398;-73
2023/06/16 12:12:33;;;;;;;4.28;1.60;;;22.60;55.40;;;;;;5032966;28;20047;-73
2023/06/16 12:15:03;;;;;;;2.72;1.48;;;22.60;55.60;;;;;;5050699;28;20119;-72
2023/06/16 12:17:29;;;;;;;5.35;1.60;;;22.70;55.30;;;;;;5033012;28;20052;-72
2023/06/16 12:19:55;;;;;;;2.72;1.60;;;22.70;55.00;;;;;;5032529;28;20127;-72
2023/06/16 12:22:22;;;;;;;2.83;1.30;;;22.70;55.40;;;;;;5032678;28;20037;-72
2023/06/16 12:24:48;;;;;;;5.40;1.70;;;22.70;55.10;;;;;;5032505;28;20057;-72
2023/06/16 12:27:24;;;;;;;3.78;1.65;;;22.80;54.90;;;;;;5032607;28;20072;-73
2023/06/16 12:29:59;;;;;;;5.18;1.70;;;22.80;54.10;;;;;;5032607;28;20041;-72
2023/06/16 12:32:28;;;;;;;;;;;22.80;53.50;;;;;;5050673;28;20215;-72
2023/06/16 12:34:54;;;;;;;3.58;1.80;;;22.90;52.00;;;;;;5050466;28;19923;-72
2023/06/16 12:37:20;;;;;;;3.97;1.90;;;22.90;54.40;;;;;;5015398;28;20123;-72
2023/06/16 12:39:56;;;;;;;4.05;1.60;;;22.90;54.40;;;;;;5032895;28;20040;-72
2023/06/16 12:42:30;;;;;;;4.57;1.50;;;22.90;53.90;;;;;;5032354;28;20140;-72
2023/06/16 12:45:02;;;;;;;3.85;1.40;;;22.90;53.90;;;;;;5032471;28;20048;-72
2023/06/16 12:47:29;;;;;;;2.95;1.73;;;22.90;54.30;;;;;;5032214;28;20491;-72
2023/06/16 12:49:56;;;;;;;3.63;1.20;;;22.90;54.00;;;;;;5016048;28;20041;-72